CheckWX is a tool to help pilots better visualize weather data.  It is not intended as a substitute for an official pre-flight weather briefing.

16:15:12 UTC

VTPO METAR
Sukhothai Airport
Thailand
Current

6 hours ago

VTPO 101000Z 24012KT 9999 FEW018CB SCT025 36/22 Q1002 TEMPO 5000 TSRA
Observed
Jul-10 @ 10:00 UTC
Wind
  • 240° at 12 KTS
Visibility
10,000+ meters
Flight Rules
VFR
Cloud Levels
  • Few at 1,800' AGL
  • Scattered at 2,500' AGL
Temperature
36°C / 97°F
Dewpoint
22°C / 72°F
Humidity
44%
Altimeter
29.59" Hg
Pressure
1001.92 hPa
Previous

7 hours ago

VTPO 100900Z 22012KT 9999 FEW018CB SCT025 36/22 Q1003 TEMPO 5000 TSRA
Observed
Jul-10 @ 09:00 UTC
Wind
  • 220° at 12 KTS
Visibility
10,000+ meters
Flight Rules
VFR
Cloud Levels
  • Few at 1,800' AGL
  • Scattered at 2,500' AGL
Temperature
36°C / 97°F
Dewpoint
22°C / 72°F
Humidity
44%
Altimeter
29.62" Hg
Pressure
1002.92 hPa
Previous

8 hours ago

VTPO 100800Z 21012KT 9999 SCT025 36/22 Q1003 NOSIG
Observed
Jul-10 @ 08:00 UTC
Wind
  • 210° at 12 KTS
Visibility
10,000+ meters
Flight Rules
VFR
Cloud Levels
  • Scattered at 2,500' AGL
Temperature
36°C / 97°F
Dewpoint
22°C / 72°F
Humidity
44%
Altimeter
29.62" Hg
Pressure
1002.92 hPa